Time;durP1;ratioP1;P1;durP2;ratioP2;P2;SDS_P1;SDS_P2;PMS_P1;PMS_P2;Temp;Humidity;BMP_temperature;BMP_pressure;BME280_temperature;BME280_humidity;BME280_pressure;Samples;Min_cycle;Max_cycle;Signal;HPM_P1;HPM_P2
2022/11/10 00:02:08;;;;;;;20.48;18.08;;;10.70;99.90;;;;;;5062441;28;20043;-77
2022/11/10 00:04:54;;;;;;;20.48;18.48;;;10.60;99.90;;;;;;5061690;28;20055;-76
2022/11/10 00:07:39;;;;;;;21.38;18.67;;;10.70;99.90;;;;;;5045773;28;20090;-78
2022/11/10 00:10:24;;;;;;;;;;;10.70;99.90;;;;;;5061523;28;20040;-77
2022/11/10 00:13:09;;;;;;;25.38;17.35;;;10.70;99.90;;;;;;5042557;28;20018;-78
2022/11/10 00:19:02;;;;;;;21.77;18.63;;;10.60;99.90;;;;;;5067498;28;20036;-78
2022/11/10 00:21:47;;;;;;;24.05;18.45;;;10.60;99.90;;;;;;5072166;28;20044;-77
2022/11/10 00:24:33;;;;;;;;;;;10.60;99.90;;;;;;5044684;28;20151;-77
2022/11/10 00:27:18;;;;;;;19.67;17.58;;;10.70;99.90;;;;;;5044580;28;19931;-77
2022/11/10 00:30:04;;;;;;;;;;;10.70;99.90;;;;;;5063766;28;20055;-78
2022/11/10 00:32:50;;;;;;;19.10;17.38;;;10.70;99.90;;;;;;5048340;28;20437;-77
2022/11/10 00:35:35;;;;;;;;;;;10.80;99.90;;;;;;5061225;28;20048;-77
2022/11/10 00:38:20;;;;;;;17.95;16.17;;;10.70;99.90;;;;;;5045516;28;19927;-77
2022/11/10 00:41:06;;;;;;;;;;;10.70;99.90;;;;;;5062207;28;20082;-77
2022/11/10 00:43:51;;;;;;;17.70;16.08;;;10.70;99.90;;;;;;5041436;28;19928;-77
2022/11/10 00:46:36;;;;;;;18.50;16.63;;;10.60;99.90;;;;;;5059859;28;20052;-77
2022/11/10 00:49:22;;;;;;;;;;;10.70;99.90;;;;;;5042197;28;20048;-78
2022/11/10 00:52:07;;;;;;;27.17;17.65;;;10.70;99.90;;;;;;5045568;28;19943;-77
2022/11/10 00:54:53;;;;;;;16.90;15.27;;;10.60;99.90;;;;;;5057024;28;20044;-77
2022/11/10 00:57:38;;;;;;;;;;;10.70;99.90;;;;;;5059515;28;20055;-76
2022/11/10 01:00:23;;;;;;;22.08;16.35;;;10.60;99.90;;;;;;5043322;28;19920;-77
2022/11/10 01:03:16;;;;;;;22.70;16.40;;;10.60;99.90;;;;;;5062929;28;20126;-78
2022/11/10 01:06:07;;;;;;;18.98;15.90;;;10.60;99.90;;;;;;5046555;28;20040;-77
2022/11/10 01:08:53;;;;;;;21.40;16.70;;;10.60;99.90;;;;;;5061934;28;20089;-80
2022/11/10 01:11:38;;;;;;;24.77;16.38;;;10.60;99.90;;;;;;5058952;28;20049;-77
2022/11/10 01:14:23;;;;;;;23.13;17.15;;;10.60;99.90;;;;;;5058994;28;20610;-76
2022/11/10 01:17:08;;;;;;;24.00;16.77;;;10.60;99.90;;;;;;5045701;28;20041;-77
2022/11/10 01:19:53;;;;;;;;;;;10.60;99.90;;;;;;5037761;28;20738;-76
2022/11/10 01:22:39;;;;;;;20.27;16.45;;;10.60;99.90;;;;;;5059409;28;20168;-77
2022/11/10 01:25:24;;;;;;;21.15;16.77;;;10.60;99.90;;;;;;5057536;28;20044;-76
2022/11/10 01:28:09;;;;;;;18.10;16.38;;;10.60;99.90;;;;;;5039801;28;20162;-79
2022/11/10 01:30:56;;;;;;;;;;;10.60;99.90;;;;;;5040504;28;20148;-78
2022/11/10 01:33:41;;;;;;;26.55;17.42;;;10.60;99.90;;;;;;5058193;28;20002;-77
2022/11/10 01:36:27;;;;;;;17.42;15.73;;;10.60;99.90;;;;;;5058360;28;20048;-76
2022/11/10 01:39:12;;;;;;;;;;;10.60;99.90;;;;;;5047691;28;20056;-76
2022/11/10 01:41:57;;;;;;;20.30;15.55;;;10.60;99.90;;;;;;5055528;28;20502;-77
2022/11/10 01:45:21;;;;;;;23.92;16.08;;;10.60;99.90;;;;;;5052823;28;20057;-77
2022/11/10 01:48:09;;;;;;;22.45;16.52;;;10.60;99.90;;;;;;5030361;28;20075;-78
2022/11/10 01:50:56;;;;;;;20.92;16.45;;;10.60;99.90;;;;;;5054703;28;20083;-78
2022/11/10 01:53:45;;;;;;;26.52;16.40;;;10.60;99.90;;;;;;5037440;28;20149;-77
2022/11/10 01:56:36;;;;;;;22.70;16.58;;;10.60;99.90;;;;;;5040995;28;20155;-77
2022/11/10 01:59:26;;;;;;;27.15;16.25;;;10.50;99.90;;;;;;5040517;28;20119;-79
2022/11/10 02:02:21;;;;;;;18.58;16.63;;;10.50;99.90;;;;;;5040995;28;20083;-77
2022/11/10 02:05:07;;;;;;;18.95;16.27;;;10.60;99.90;;;;;;5045789;28;20056;-78
2022/11/10 02:07:55;;;;;;;21.67;16.15;;;10.50;99.90;;;;;;5061086;28;20501;-77
2022/11/10 02:10:40;;;;;;;18.42;16.67;;;10.50;99.90;;;;;;5041855;28;20051;-77
2022/11/10 02:13:25;;;;;;;;;;;10.50;99.90;;;;;;5058064;28;20133;-77
2022/11/10 02:16:11;;;;;;;17.08;15.25;;;10.60;99.90;;;;;;5057730;28;19928;-78
2022/11/10 02:18:56;;;;;;;24.08;15.23;;;10.50;99.90;;;;;;5040562;28;20055;-77
2022/11/10 02:21:42;;;;;;;19.05;15.07;;;10.50;99.90;;;;;;5059022;28;20044;-78
2022/11/10 02:24:27;;;;;;;21.60;15.80;;;10.50;99.90;;;;;;5036150;28;20053;-79
2022/11/10 02:27:13;;;;;;;24.00;16.85;;;10.50;99.90;;;;;;5049457;28;20041;-76
2022/11/10 02:29:58;;;;;;;;;;;10.50;99.90;;;;;;5058722;28;20508;-77
2022/11/10 02:32:43;;;;;;;19.02;14.95;;;10.50;99.90;;;;;;5046891;28;19974;-76
2022/11/10 02:35:28;;;;;;;22.08;15.55;;;10.40;99.90;;;;;;5048445;28;20052;-78
2022/11/10 02:38:14;;;;;;;31.27;16.52;;;10.40;99.90;;;;;;5064246;28;20538;-79
2022/11/10 02:40:59;;;;;;;27.27;15.95;;;10.40;99.90;;;;;;5049081;28;20057;-77
2022/11/10 02:43:44;;;;;;;;;;;10.40;99.90;;;;;;5057902;28;20129;-76
2022/11/10 02:46:30;;;;;;;24.20;16.23;;;10.40;99.90;;;;;;5054434;28;19982;-75
2022/11/10 02:49:15;;;;;;;21.63;15.45;;;10.40;99.90;;;;;;5053096;28;20047;-77
2022/11/10 02:52:00;;;;;;;17.40;14.55;;;10.40;99.90;;;;;;5056311;28;20041;-77
2022/11/10 02:54:46;;;;;;;;;;;10.30;99.90;;;;;;5057696;28;20499;-76
2022/11/10 02:57:31;;;;;;;28.42;15.98;;;10.40;99.90;;;;;;5050263;28;19950;-77
2022/11/10 03:00:17;;;;;;;20.05;14.77;;;10.40;99.90;;;;;;5057225;28;20589;-78
2022/11/10 03:03:03;;;;;;;23.10;14.75;;;10.40;99.90;;;;;;5055625;28;20051;-78
2022/11/10 03:05:49;;;;;;;18.23;15.30;;;10.40;99.90;;;;;;5057595;28;20132;-79
2022/11/10 03:08:34;;;;;;;31.63;17.17;;;10.40;99.90;;;;;;5057103;28;20123;-77
2022/11/10 03:11:19;;;;;;;;;;;10.50;99.90;;;;;;5069829;28;20052;-79
2022/11/10 03:14:04;;;;;;;26.55;15.23;;;10.40;99.90;;;;;;5058281;28;20066;-76
2022/11/10 03:16:49;;;;;;;21.42;15.52;;;10.40;99.90;;;;;;5059619;28;20141;-77
2022/11/10 03:19:35;;;;;;;24.60;15.35;;;10.50;99.90;;;;;;5041549;28;20461;-77
2022/11/10 03:22:20;;;;;;;26.67;16.63;;;10.50;99.90;;;;;;5041511;28;20051;-76
2022/11/10 03:25:06;;;;;;;;;;;10.40;99.90;;;;;;5041252;28;20055;-77
2022/11/10 03:27:51;;;;;;;19.88;14.90;;;10.40;99.90;;;;;;5041505;28;20358;-78
2022/11/10 03:30:37;;;;;;;20.92;15.27;;;10.40;99.90;;;;;;5056427;28;20135;-77
2022/11/10 03:33:23;;;;;;;17.58;15.20;;;10.40;99.90;;;;;;5055472;28;20051;-77
2022/11/10 03:36:09;;;;;;;18.05;14.77;;;10.40;99.90;;;;;;5054165;28;20082;-80
2022/11/10 03:38:55;;;;;;;31.15;16.38;;;10.40;99.90;;;;;;5045382;28;20160;-77
2022/11/10 03:41:41;;;;;;;23.55;15.95;;;10.40;99.90;;;;;;5056637;28;20433;-77
2022/11/10 03:44:26;;;;;;;;;;;10.40;99.90;;;;;;5042610;28;20051;-78
2022/11/10 03:47:11;;;;;;;25.60;15.02;;;10.40;99.90;;;;;;5063172;28;20004;-77
2022/11/10 03:49:57;;;;;;;;;;;10.40;99.90;;;;;;5040664;28;20197;-78
2022/11/10 03:52:44;;;;;;;23.52;15.43;;;10.40;99.90;;;;;;5041393;28;19982;-77
2022/11/10 03:55:29;;;;;;;27.70;16.02;;;10.40;99.90;;;;;;5038695;28;20164;-78
2022/11/10 03:58:14;;;;;;;16.85;15.38;;;10.40;99.90;;;;;;5057253;28;20055;-77
2022/11/10 04:00:59;;;;;;;32.10;16.70;;;10.40;99.90;;;;;;5054420;28;20060;-77
2022/11/10 04:03:45;;;;;;;28.67;16.67;;;10.40;99.90;;;;;;5059054;28;20067;-78
2022/11/10 04:09:39;;;;;;;18.40;16.25;;;10.40;99.90;;;;;;5056088;28;20686;-78
2022/11/10 04:15:40;;;;;;;21.25;16.73;;;10.40;99.90;;;;;;5057899;28;20052;-77
2022/11/10 04:18:28;;;;;;;25.85;17.83;;;10.40;99.90;;;;;;5044502;28;20543;-78
2022/11/10 04:21:13;;;;;;;22.77;17.20;;;10.40;99.90;;;;;;5059728;28;20051;-78
2022/11/10 04:23:59;;;;;;;37.20;17.83;;;10.40;99.90;;;;;;5059886;28;20051;-78
2022/11/10 04:26:46;;;;;;;23.48;17.70;;;10.40;99.90;;;;;;5063915;28;20048;-77
2022/11/10 04:29:31;;;;;;;23.05;16.65;;;10.40;99.90;;;;;;5061044;28;20101;-78
2022/11/10 04:32:16;;;;;;;20.80;16.92;;;10.40;99.90;;;;;;5064477;28;20048;-77
2022/11/10 04:35:02;;;;;;;;;;;10.40;99.90;;;;;;5059921;28;20175;-77
2022/11/10 04:37:47;;;;;;;27.80;19.60;;;10.40;99.90;;;;;;5048711;28;19924;-77
2022/11/10 04:40:32;;;;;;;23.85;17.13;;;10.40;99.90;;;;;;5060414;28;20040;-78
2022/11/10 04:43:18;;;;;;;25.00;18.20;;;10.40;99.90;;;;;;5044300;28;20140;-77
2022/11/10 04:46:05;;;;;;;28.05;18.52;;;10.50;99.90;;;;;;5063769;28;20036;-78
2022/11/10 04:48:52;;;;;;;23.30;18.30;;;10.40;99.90;;;;;;5048306;28;20044;-79
2022/11/10 04:51:38;;;;;;;18.65;16.83;;;10.40;99.90;;;;;;5060948;28;20666;-78
2022/11/10 04:54:24;;;;;;;18.90;17.27;;;10.40;99.90;;;;;;5045569;28;20089;-78
2022/11/10 04:57:10;;;;;;;21.60;17.70;;;10.40;99.90;;;;;;5060881;28;20044;-79
2022/11/10 04:59:55;;;;;;;26.98;17.08;;;10.30;99.90;;;;;;5045833;28;20044;-79
2022/11/10 05:02:41;;;;;;;;;;;10.30;99.90;;;;;;5046816;28;20056;-78
2022/11/10 05:05:26;;;;;;;24.88;17.30;;;10.40;99.90;;;;;;5041058;28;19921;-78
2022/11/10 05:08:12;;;;;;;19.30;17.05;;;10.40;99.90;;;;;;5056549;28;20068;-77
2022/11/10 05:10:57;;;;;;;23.80;18.25;;;10.40;99.90;;;;;;5045933;28;20059;-78
2022/11/10 05:13:43;;;;;;;;;;;10.40;99.90;;;;;;5057336;28;20101;-78
2022/11/10 05:16:29;;;;;;;24.77;17.98;;;10.40;99.90;;;;;;5056103;28;19927;-77
2022/11/10 05:19:14;;;;;;;22.85;16.85;;;10.40;99.90;;;;;;5061800;28;20051;-78
2022/11/10 05:22:00;;;;;;;30.17;18.77;;;10.40;99.90;;;;;;5045299;28;20040;-77
2022/11/10 05:24:45;;;;;;;18.98;16.88;;;10.40;99.90;;;;;;5045695;28;20075;-78
2022/11/10 05:27:30;;;;;;;24.17;17.27;;;10.50;99.90;;;;;;5057446;28;20543;-77
2022/11/10 05:30:16;;;;;;;;;;;10.40;99.90;;;;;;5059126;28;20494;-77
2022/11/10 05:33:03;;;;;;;24.52;17.45;;;10.40;99.90;;;;;;5043072;28;19965;-77
2022/11/10 05:35:49;;;;;;;21.58;17.70;;;10.40;99.90;;;;;;5060386;28;20170;-79
2022/11/10 05:38:34;;;;;;;20.13;17.65;;;10.40;99.90;;;;;;5044097;28;20427;-78
2022/11/10 05:41:27;;;;;;;23.42;17.38;;;10.40;99.90;;;;;;5039501;28;20055;-78
2022/11/10 05:44:12;;;;;;;;;;;10.40;99.90;;;;;;5042346;28;20048;-77
2022/11/10 05:46:57;;;;;;;23.65;17.73;;;10.40;99.90;;;;;;5059973;28;19924;-78
2022/11/10 05:49:43;;;;;;;;;;;10.30;99.90;;;;;;5059135;28;20041;-77
2022/11/10 05:52:28;;;;;;;29.57;17.40;;;10.40;99.90;;;;;;5038140;28;19943;-76
2022/11/10 05:55:15;;;;;;;19.27;17.23;;;10.40;99.90;;;;;;5060524;28;20290;-78
2022/11/10 05:58:00;;;;;;;28.33;20.42;;;10.30;99.90;;;;;;5045477;28;20616;-77
2022/11/10 06:00:46;;;;;;;25.67;18.25;;;10.30;99.90;;;;;;5047751;28;20048;-78
2022/11/10 06:03:31;;;;;;;28.30;18.02;;;10.40;99.90;;;;;;5055898;28;20152;-77
2022/11/10 06:06:17;;;;;;;;;;;10.30;99.90;;;;;;5058771;28;20060;-78
2022/11/10 06:09:02;;;;;;;25.25;18.20;;;10.30;99.90;;;;;;5060590;28;20515;-79
2022/11/10 06:11:48;;;;;;;;;;;10.30;99.90;;;;;;5045210;28;20036;-77
2022/11/10 06:14:33;;;;;;;19.33;17.33;;;10.30;99.90;;;;;;5043037;28;20316;-77
2022/11/10 06:17:18;;;;;;;;;;;10.40;99.90;;;;;;5059186;28;20194;-79
2022/11/10 06:20:03;;;;;;;21.85;16.98;;;10.40;99.90;;;;;;5046178;28;19924;-77
2022/11/10 06:23:04;;;;;;;28.40;16.40;;;10.40;99.90;;;;;;5043339;28;20045;-78
2022/11/10 06:25:50;;;;;;;30.25;18.73;;;10.40;99.90;;;;;;5041968;28;20114;-77
2022/11/10 06:28:36;;;;;;;18.85;16.83;;;10.40;99.90;;;;;;5055149;28;20044;-77
2022/11/10 06:31:21;;;;;;;24.90;17.38;;;10.30;99.90;;;;;;5040980;28;20048;-78
2022/11/10 06:34:07;;;;;;;21.77;18.13;;;10.40;99.90;;;;;;5042831;28;20090;-77
2022/11/10 06:36:52;;;;;;;29.70;18.40;;;10.40;99.90;;;;;;5059449;28;20104;-78
2022/11/10 06:39:38;;;;;;;;;;;10.30;99.90;;;;;;5046637;28;20361;-78
2022/11/10 06:42:23;;;;;;;26.77;17.48;;;10.30;99.90;;;;;;5037094;28;20295;-78
2022/11/10 06:45:08;;;;;;;24.17;18.92;;;10.30;99.90;;;;;;5063050;28;20059;-78
2022/11/10 06:48:01;;;;;;;33.45;19.15;;;10.30;99.90;;;;;;5061687;28;20546;-78
2022/11/10 06:50:46;;;;;;;32.33;18.60;;;10.30;99.90;;;;;;5060256;28;20102;-79
2022/11/10 06:53:32;;;;;;;;;;;10.30;99.90;;;;;;5059221;28;20068;-78
2022/11/10 06:56:18;;;;;;;;;;;10.30;99.90;;;;;;5058516;28;19920;-78
2022/11/10 06:59:03;;;;;;;20.05;17.65;;;10.20;99.90;;;;;;5049384;28;19920;-79
2022/11/10 07:01:49;;;;;;;26.58;17.23;;;10.20;99.90;;;;;;5055274;28;20118;-78
2022/11/10 07:04:34;;;;;;;;;;;10.20;99.90;;;;;;5050721;28;20045;-77
2022/11/10 07:07:19;;;;;;;20.70;17.07;;;10.20;99.90;;;;;;5037479;28;19928;-77
2022/11/10 07:10:05;;;;;;;29.10;18.45;;;10.20;99.90;;;;;;5043808;28;20293;-77
2022/11/10 07:12:56;;;;;;;26.42;17.75;;;10.20;99.90;;;;;;5059983;28;20060;-77
2022/11/10 07:15:42;;;;;;;30.75;17.80;;;10.20;99.90;;;;;;5044255;28;20082;-78
2022/11/10 07:18:27;;;;;;;;;;;10.20;99.90;;;;;;5044188;28;20217;-78
2022/11/10 07:21:12;;;;;;;29.38;18.75;;;10.20;99.90;;;;;;5045640;28;19943;-78
2022/11/10 07:23:57;;;;;;;24.50;19.70;;;10.20;99.90;;;;;;5047311;28;20053;-79
2022/11/10 07:26:43;;;;;;;;;;;10.30;99.90;;;;;;5062151;28;20106;-77
2022/11/10 07:29:28;;;;;;;31.50;19.98;;;10.30;99.90;;;;;;5043758;28;20104;-80
2022/11/10 07:32:13;;;;;;;25.30;20.27;;;10.30;99.90;;;;;;5043360;28;20058;-79
2022/11/10 07:34:59;;;;;;;28.83;20.50;;;10.30;99.90;;;;;;5045075;28;20049;-78
2022/11/10 07:37:44;;;;;;;;;;;10.30;99.90;;;;;;5045281;28;20048;-79
2022/11/10 07:40:30;;;;;;;29.20;20.98;;;10.40;99.90;;;;;;5040116;28;20542;-79
2022/11/10 07:43:15;;;;;;;33.80;22.10;;;10.40;99.90;;;;;;5042872;28;20678;-80
2022/11/10 07:46:01;;;;;;;25.83;22.92;;;10.40;99.90;;;;;;5058409;28;20095;-77
2022/11/10 07:48:46;;;;;;;31.35;22.50;;;10.50;99.90;;;;;;5045903;28;20044;-77
2022/11/10 07:51:31;;;;;;;24.27;21.38;;;10.40;99.90;;;;;;5041986;28;20747;-77
2022/11/10 07:54:17;;;;;;;31.90;21.20;;;10.50;99.90;;;;;;5060258;28;20070;-75
2022/11/10 07:57:02;;;;;;;24.92;21.63;;;10.50;99.90;;;;;;5045043;28;20047;-78
2022/11/10 07:59:48;;;;;;;;;;;10.50;99.90;;;;;;5048403;28;20048;-77
2022/11/10 08:02:37;;;;;;;29.38;21.20;;;10.50;99.90;;;;;;5046870;28;19927;-77
2022/11/10 08:05:22;;;;;;;29.73;21.30;;;10.60;99.90;;;;;;5050317;28;20052;-77
2022/11/10 08:08:08;;;;;;;35.05;20.83;;;10.60;99.90;;;;;;5046179;28;20128;-78
2022/11/10 08:10:56;;;;;;;24.98;22.35;;;10.60;99.90;;;;;;5044839;28;20094;-78
2022/11/10 08:13:42;;;;;;;24.35;21.30;;;10.70;99.90;;;;;;5061782;28;20125;-78
2022/11/10 08:16:27;;;;;;;24.25;21.90;;;10.70;99.90;;;;;;5044611;28;20047;-79
2022/11/10 08:19:12;;;;;;;34.20;23.73;;;10.80;99.90;;;;;;5042560;28;20055;-78
2022/11/10 08:21:57;;;;;;;30.70;22.30;;;10.80;99.90;;;;;;5045530;28;20041;-78
2022/11/10 08:24:43;;;;;;;24.88;22.17;;;10.90;99.90;;;;;;5044764;28;20048;-77
2022/11/10 08:27:28;;;;;;;;;;;10.90;99.90;;;;;;5046880;28;20068;-78
2022/11/10 08:30:13;;;;;;;25.58;22.75;;;11.00;99.90;;;;;;5047740;28;19928;-80
2022/11/10 08:33:01;;;;;;;27.67;23.42;;;11.00;99.90;;;;;;5063185;28;20142;-78
2022/11/10 08:35:49;;;;;;;26.00;22.42;;;11.10;99.90;;;;;;5049676;28;20041;-77
2022/11/10 08:38:35;;;;;;;25.88;21.50;;;11.00;99.90;;;;;;5059287;28;20048;-78
2022/11/10 08:41:22;;;;;;;25.88;23.17;;;11.00;99.90;;;;;;5044150;28;20567;-78
2022/11/10 08:44:08;;;;;;;27.75;22.77;;;11.00;99.90;;;;;;5047229;28;20540;-79
2022/11/10 08:46:55;;;;;;;31.58;23.05;;;11.00;99.90;;;;;;5047605;28;20245;-79
2022/11/10 08:49:41;;;;;;;26.17;22.20;;;11.10;99.90;;;;;;5046075;28;20600;-77
2022/11/10 08:52:26;;;;;;;;;;;11.30;99.90;;;;;;5059143;28;20044;-78
2022/11/10 08:55:11;;;;;;;29.13;23.40;;;11.40;99.90;;;;;;5042320;28;19943;-77
2022/11/10 08:58:02;;;;;;;29.10;23.15;;;11.40;99.90;;;;;;5047909;28;20045;-77
2022/11/10 09:00:47;;;;;;;34.20;23.73;;;11.40;99.90;;;;;;5048906;28;20051;-77
2022/11/10 09:03:32;;;;;;;28.60;24.77;;;11.40;99.90;;;;;;5044132;28;20582;-77
2022/11/10 09:06:18;;;;;;;29.35;24.17;;;11.50;99.90;;;;;;5058326;28;20479;-77
2022/11/10 09:09:03;;;;;;;;;;;11.70;99.90;;;;;;5061106;28;20070;-78
2022/11/10 09:11:49;;;;;;;29.77;25.25;;;11.70;99.90;;;;;;5042884;28;20037;-77
2022/11/10 09:14:34;;;;;;;27.83;24.95;;;11.70;99.90;;;;;;5043866;28;20045;-79
2022/11/10 09:17:20;;;;;;;;;;;11.80;99.90;;;;;;5043033;28;20055;-79
2022/11/10 09:20:07;;;;;;;25.80;23.60;;;11.80;99.90;;;;;;5043200;28;19927;-78
2022/11/10 09:22:53;;;;;;;26.35;24.13;;;11.80;99.90;;;;;;5043954;28;20075;-78
2022/11/10 09:25:39;;;;;;;31.83;25.23;;;11.80;99.90;;;;;;5061267;28;20093;-79
2022/11/10 09:28:24;;;;;;;27.88;24.90;;;12.00;99.90;;;;;;5044377;28;20091;-78
2022/11/10 09:31:10;;;;;;;29.45;25.83;;;12.10;99.90;;;;;;5042633;28;20065;-77
2022/11/10 09:33:58;;;;;;;26.38;23.63;;;12.20;99.90;;;;;;5042707;28;20055;-78
2022/11/10 09:36:43;;;;;;;27.67;24.20;;;12.10;99.90;;;;;;5034505;28;20045;-79
2022/11/10 09:39:28;;;;;;;30.17;22.90;;;12.00;99.90;;;;;;5062516;28;20433;-77
2022/11/10 09:42:32;;;;;;;28.05;24.55;;;12.00;99.90;;;;;;5042906;28;20615;-78
2022/11/10 09:45:38;;;;;;;31.77;24.30;;;12.00;99.90;;;;;;5070798;28;20071;-77
2022/11/10 09:48:24;;;;;;;27.40;24.77;;;11.90;99.90;;;;;;5050089;28;20071;-78
2022/11/10 09:51:24;;;;;;;26.95;23.15;;;12.00;99.90;;;;;;5046930;28;20048;-78
2022/11/10 09:54:15;;;;;;;27.58;23.65;;;12.00;99.90;;;;;;5044463;28;20044;-78
2022/11/10 09:57:03;;;;;;;28.65;24.67;;;12.10;99.90;;;;;;5048548;28;20469;-78
2022/11/10 09:59:49;;;;;;;26.65;23.67;;;12.20;99.90;;;;;;5045680;28;20045;-79
2022/11/10 10:02:44;;;;;;;26.17;23.48;;;12.10;99.90;;;;;;5058597;28;20052;-79
2022/11/10 10:06:02;;;;;;;28.85;23.17;;;12.20;99.90;;;;;;5058004;28;20052;-78
2022/11/10 10:08:56;;;;;;;26.10;23.42;;;12.30;99.90;;;;;;5046855;28;20063;-77
2022/11/10 10:11:53;;;;;;;25.55;22.83;;;12.50;99.90;;;;;;5058137;28;20134;-77
2022/11/10 10:15:05;;;;;;;31.40;24.73;;;12.40;99.90;;;;;;5044443;28;20056;-78
2022/11/10 10:18:00;;;;;;;29.55;24.65;;;12.50;99.90;;;;;;5052993;28;20740;-78
2022/11/10 10:21:12;;;;;;;26.92;23.90;;;12.70;99.90;;;;;;5048742;28;20187;-78
2022/11/10 10:24:00;;;;;;;25.20;22.52;;;12.70;99.90;;;;;;5054092;28;20094;-78
2022/11/10 10:27:04;;;;;;;25.95;23.25;;;12.70;99.90;;;;;;5042434;28;20032;-77
2022/11/10 10:29:50;;;;;;;31.45;23.90;;;12.70;99.90;;;;;;5045419;28;20430;-77
2022/11/10 10:32:36;;;;;;;26.60;23.88;;;12.70;99.90;;;;;;5043180;28;20055;-78
2022/11/10 10:35:22;;;;;;;29.10;24.60;;;12.80;99.90;;;;;;5054111;28;20672;-78
2022/11/10 10:38:33;;;;;;;25.85;23.13;;;13.00;99.90;;;;;;5040421;28;20079;-77
2022/11/10 10:41:25;;;;;;;27.23;22.92;;;12.90;99.90;;;;;;5036854;28;20081;-77
2022/11/10 10:44:17;;;;;;;24.88;22.35;;;13.00;99.90;;;;;;5041044;28;20106;-78
2022/11/10 10:47:03;;;;;;;24.15;22.13;;;13.00;99.90;;;;;;5041508;28;20090;-78
2022/11/10 10:49:48;;;;;;;24.67;22.08;;;13.20;99.90;;;;;;5044592;28;20122;-77
2022/11/10 10:52:34;;;;;;;24.52;21.85;;;13.50;99.90;;;;;;5039403;28;20048;-78
2022/11/10 10:55:19;;;;;;;24.02;21.90;;;13.50;99.90;;;;;;5041712;28;20052;-78
2022/11/10 10:58:22;;;;;;;24.13;21.77;;;13.40;99.90;;;;;;5056827;28;20036;-78
2022/11/10 11:01:14;;;;;;;26.35;23.75;;;13.20;99.90;;;;;;5035665;28;20107;-78
2022/11/10 11:04:04;;;;;;;25.77;22.83;;;13.30;99.90;;;;;;5056397;28;20512;-77
2022/11/10 11:07:02;;;;;;;24.30;21.60;;;13.40;99.90;;;;;;5040660;28;20580;-78
2022/11/10 11:09:47;;;;;;;23.33;21.33;;;13.60;99.90;;;;;;5044000;28;20048;-77
2022/11/10 11:12:33;;;;;;;25.00;22.30;;;13.40;99.90;;;;;;5040079;28;20055;-77
2022/11/10 11:15:28;;;;;;;27.00;22.40;;;13.40;99.90;;;;;;5037164;28;20406;-78
2022/11/10 11:18:16;;;;;;;27.63;23.20;;;13.60;99.90;;;;;;5057070;28;20056;-77
2022/11/10 11:21:32;;;;;;;25.75;22.90;;;13.70;99.90;;;;;;5042568;28;20118;-78
2022/11/10 11:24:30;;;;;;;25.23;23.00;;;13.80;99.90;;;;;;5038480;28;20063;-75
2022/11/10 11:27:51;;;;;;;27.52;23.85;;;13.80;99.90;;;;;;5056989;28;20086;-78
2022/11/10 11:30:51;;;;;;;25.83;23.38;;;13.70;99.90;;;;;;5050066;28;21422;-77
2022/11/10 11:34:12;;;;;;;24.80;22.45;;;13.90;99.90;;;;;;5059856;28;20135;-77
2022/11/10 11:37:18;;;;;;;27.75;23.77;;;13.90;99.90;;;;;;5043360;28;20143;-77
2022/11/10 11:40:21;;;;;;;26.75;24.02;;;14.10;99.90;;;;;;5061981;28;20052;-77
2022/11/10 11:43:19;;;;;;;24.92;22.40;;;14.00;99.90;;;;;;5059855;28;20107;-77
2022/11/10 11:46:37;;;;;;;25.17;23.08;;;13.70;99.90;;;;;;5046784;28;20075;-77
2022/11/10 11:49:35;;;;;;;23.30;20.98;;;13.90;99.90;;;;;;5052415;28;20052;-78
2022/11/10 11:52:41;;;;;;;23.42;21.08;;;14.20;99.90;;;;;;5043141;28;20055;-77
2022/11/10 11:55:35;;;;;;;25.88;22.90;;;14.30;99.90;;;;;;5044381;28;20053;-77
2022/11/10 11:58:30;;;;;;;23.58;21.70;;;14.30;99.90;;;;;;5042575;28;20104;-77
2022/11/10 12:01:34;;;;;;;27.33;23.80;;;14.30;99.90;;;;;;5042190;28;20048;-78
2022/11/10 12:04:38;;;;;;;24.75;22.25;;;14.10;99.90;;;;;;5055290;28;20573;-77
2022/11/10 12:07:41;;;;;;;25.90;23.08;;;13.90;99.90;;;;;;5040326;28;20494;-77
2022/11/10 12:10:51;;;;;;;26.83;22.88;;;14.00;99.90;;;;;;5048726;28;20048;-77
2022/11/10 12:13:57;;;;;;;24.92;22.27;;;14.10;99.90;;;;;;5042171;28;20044;-77
2022/11/10 12:16:54;;;;;;;24.33;22.05;;;13.90;99.90;;;;;;5043588;28;20051;-76
2022/11/10 12:20:06;;;;;;;27.60;23.50;;;13.90;99.90;;;;;;5043249;28;20422;-77
2022/11/10 12:23:20;;;;;;;27.98;22.50;;;14.00;99.90;;;;;;5062118;28;20151;-77
2022/11/10 12:26:27;;;;;;;24.95;22.55;;;14.20;99.90;;;;;;5041002;28;20080;-76
2022/11/10 12:29:31;;;;;;;29.60;24.60;;;14.10;99.90;;;;;;5039755;28;20584;-77
2022/11/10 12:32:20;;;;;;;25.23;22.25;;;14.10;99.90;;;;;;5059874;28;20043;-78
2022/11/10 12:35:22;;;;;;;26.05;23.40;;;14.30;99.90;;;;;;5051664;28;20818;-77
2022/11/10 12:38:16;;;;;;;23.35;21.35;;;14.40;99.90;;;;;;5043963;28;20043;-78
2022/11/10 12:41:08;;;;;;;26.58;22.38;;;14.30;99.90;;;;;;5032356;28;20044;-77
2022/11/10 12:44:11;;;;;;;23.15;21.13;;;14.30;99.90;;;;;;5056513;28;20098;-76
2022/11/10 12:47:01;;;;;;;24.38;22.10;;;14.10;99.90;;;;;;5044590;28;20037;-78
2022/11/10 12:50:01;;;;;;;23.38;21.40;;;14.00;99.90;;;;;;5063144;28;20076;-77
2022/11/10 12:52:53;;;;;;;24.63;22.20;;;14.10;99.90;;;;;;5063628;28;20643;-78
2022/11/10 12:55:45;;;;;;;24.50;22.27;;;14.00;99.90;;;;;;5062647;28;20078;-77
2022/11/10 12:58:31;;;;;;;24.13;21.90;;;13.80;99.90;;;;;;5061719;28;20055;-78
2022/11/10 13:01:19;;;;;;;23.67;21.42;;;13.70;99.90;;;;;;5046858;28;20064;-78
2022/11/10 13:04:04;;;;;;;25.88;23.42;;;13.70;99.90;;;;;;5047745;28;20114;-79
2022/11/10 13:06:49;;;;;;;;;;;13.70;99.90;;;;;;5044725;28;20477;-77
2022/11/10 13:09:38;;;;;;;24.67;22.15;;;13.80;99.90;;;;;;5045777;28;20023;-77
2022/11/10 13:12:24;;;;;;;23.75;21.60;;;13.80;99.90;;;;;;5051319;28;20724;-78
2022/11/10 13:15:37;;;;;;;24.27;22.00;;;13.80;99.90;;;;;;5043613;28;20673;-80
2022/11/10 13:18:31;;;;;;;23.60;21.65;;;13.80;99.90;;;;;;5062006;28;20595;-78
2022/11/10 13:21:16;;;;;;;24.50;22.20;;;13.90;99.90;;;;;;5062318;28;20056;-78
2022/11/10 13:24:01;;;;;;;24.73;22.60;;;13.80;99.90;;;;;;5058201;28;20125;-77
2022/11/10 13:26:54;;;;;;;;;;;13.70;99.90;;;;;;5045223;28;20075;-78
2022/11/10 13:29:42;;;;;;;24.70;20.95;;;13.50;99.90;;;;;;5060176;28;20021;-77
2022/11/10 13:32:29;;;;;;;27.70;21.15;;;13.40;99.90;;;;;;5041292;28;20191;-78
2022/11/10 13:35:36;;;;;;;23.23;21.00;;;13.40;99.90;;;;;;5041159;28;20131;-78
2022/11/10 13:38:31;;;;;;;23.60;21.48;;;13.40;99.90;;;;;;5055562;28;20056;-77
2022/11/10 13:41:16;;;;;;;24.38;21.88;;;13.30;99.90;;;;;;5042621;28;20055;-78
2022/11/10 13:44:02;;;;;;;27.65;22.65;;;13.30;99.90;;;;;;5045708;28;20549;-78
2022/11/10 13:47:05;;;;;;;;;;;13.40;99.90;;;;;;5046185;28;20063;-77
2022/11/10 13:50:22;;;;;;;25.20;22.13;;;13.40;99.90;;;;;;5054885;28;19927;-78
2022/11/10 13:53:14;;;;;;;;;;;13.50;99.90;;;;;;5042431;28;20040;-77
2022/11/10 13:56:31;;;;;;;26.40;21.70;;;13.50;99.90;;;;;;5041511;28;19931;-77
2022/11/10 13:59:25;;;;;;;23.70;21.40;;;13.40;99.90;;;;;;5060461;28;20082;-77
2022/11/10 14:02:32;;;;;;;23.90;21.65;;;13.30;99.90;;;;;;5038465;28;20049;-77
2022/11/10 14:05:40;;;;;;;24.88;22.23;;;13.30;99.90;;;;;;5057347;28;20509;-77
2022/11/10 14:08:28;;;;;;;24.13;21.70;;;13.20;99.90;;;;;;5056062;28;20074;-78
2022/11/10 14:11:49;;;;;;;23.98;21.90;;;13.20;99.90;;;;;;5058815;28;20043;-77
2022/11/10 14:14:58;;;;;;;24.60;22.38;;;13.20;99.90;;;;;;5032079;28;20056;-78
2022/11/10 14:17:49;;;;;;;26.08;23.58;;;13.30;99.90;;;;;;5041714;28;20063;-77
2022/11/10 14:20:41;;;;;;;25.48;23.08;;;13.30;99.90;;;;;;5059056;28;20126;-77
2022/11/10 14:23:47;;;;;;;25.67;23.25;;;13.30;99.90;;;;;;5038209;28;20048;-77
2022/11/10 14:26:35;;;;;;;;;;;13.40;99.90;;;;;;5056493;28;20121;-76
2022/11/10 14:29:33;;;;;;;25.27;23.00;;;13.30;99.90;;;;;;5057148;28;19920;-76
2022/11/10 14:32:26;;;;;;;24.80;22.88;;;13.30;99.90;;;;;;5039820;28;20055;-76
2022/11/10 14:35:22;;;;;;;24.23;21.92;;;13.30;99.90;;;;;;5038845;28;20048;-77
2022/11/10 14:38:15;;;;;;;25.55;23.13;;;13.20;99.90;;;;;;5041999;28;20048;-76
2022/11/10 14:41:12;;;;;;;24.38;22.38;;;13.20;99.90;;;;;;5045085;28;20641;-76
2022/11/10 14:44:12;;;;;;;25.60;22.95;;;13.30;99.90;;;;;;5044615;28;20071;-76
2022/11/10 14:47:32;;;;;;;25.65;23.23;;;13.20;99.90;;;;;;5054714;28;20680;-77